Time;durP1;ratioP1;P1;durP2;ratioP2;P2;SDS_P1;SDS_P2;PMS_P1;PMS_P2;Temp;Humidity;BMP_temperature;BMP_pressure;BME280_temperature;BME280_humidity;BME280_pressure;Samples;Min_cycle;Max_cycle;Signal;HPM_P1;HPM_P2
2023/10/06 00:01:21;;;;;;;1.20;1.00;;;;;;;12.80;100.00;101893.47;6125257;23;20773;-70
2023/10/06 00:03:57;;;;;;;0.80;0.50;;;;;;;12.73;100.00;101891.72;6125265;23;20349;-69
2023/10/06 00:06:27;;;;;;;0.90;0.77;;;;;;;12.74;100.00;101886.09;6125217;23;20415;-68
2023/10/06 00:08:57;;;;;;;0.80;0.40;;;;;;;12.70;100.00;101892.09;6125337;23;20342;-70
2023/10/06 00:11:31;;;;;;;0.80;0.40;;;;;;;12.60;100.00;101887.81;6125163;23;20417;-69
2023/10/06 00:14:07;;;;;;;1.57;1.47;;;;;;;12.56;100.00;101889.25;6125902;23;20382;-69
2023/10/06 00:16:40;;;;;;;2.40;1.70;;;;;;;12.66;100.00;101879.94;6126069;23;20418;-68
2023/10/06 00:19:22;;;;;;;0.80;0.60;;;;;;;12.58;100.00;101881.75;6126248;23;20484;-70
2023/10/06 00:22:01;;;;;;;0.80;0.50;;;;;;;12.55;100.00;101879.41;6125602;23;20406;-69
2023/10/06 00:24:31;;;;;;;2.30;2.20;;;;;;;12.55;100.00;101892.97;6127337;23;20859;-70
2023/10/06 00:27:00;;;;;;;0.80;0.67;;;;;;;12.57;100.00;101871.06;6127220;23;20831;-69
2023/10/06 00:29:29;;;;;;;0.80;0.60;;;;;;;12.64;100.00;101874.69;6101098;23;20413;-69
2023/10/06 00:32:13;;;;;;;0.90;0.60;;;;;;;12.60;100.00;101874.25;6100887;23;20768;-68
2023/10/06 00:34:47;;;;;;;0.80;0.50;;;;;;;12.63;100.00;101873.03;6101128;23;20410;-69
2023/10/06 00:37:17;;;;;;;0.80;0.50;;;;;;;12.73;100.00;101880.88;6100875;23;20372;-67
2023/10/06 00:39:46;;;;;;;0.80;0.47;;;;;;;12.77;100.00;101879.44;6127277;23;20748;-69
2023/10/06 00:42:18;;;;;;;0.83;0.57;;;;;;;12.86;100.00;101889.16;6127149;23;20908;-67
2023/10/06 00:44:48;;;;;;;0.80;0.40;;;;;;;12.78;100.00;101876.50;6126495;23;20375;-69
2023/10/06 00:47:17;;;;;;;0.80;0.40;;;;;;;12.71;100.00;101878.34;6127014;23;20398;-68
2023/10/06 00:49:48;;;;;;;0.80;0.40;;;;;;;12.69;100.00;101876.81;6127215;23;20815;-69
2023/10/06 00:52:16;;;;;;;0.80;0.50;;;;;;;12.57;100.00;101874.63;6126663;23;20413;-68
2023/10/06 00:54:46;;;;;;;0.80;0.40;;;;;;;12.59;100.00;101864.41;6126811;23;20462;-68
2023/10/06 00:57:18;;;;;;;0.80;0.40;;;;;;;12.53;100.00;101862.47;6126732;23;20375;-67
2023/10/06 00:59:47;;;;;;;1.27;0.80;;;;;;;12.45;100.00;101854.44;6127648;23;20795;-69
2023/10/06 01:02:16;;;;;;;0.80;0.40;;;;;;;12.43;100.00;101856.50;6105935;23;20427;-67
2023/10/06 01:04:52;;;;;;;0.80;0.40;;;;;;;12.50;100.00;101856.56;6127936;23;20375;-70
2023/10/06 01:07:24;;;;;;;0.80;0.50;;;;;;;12.48;100.00;101843.22;6101235;23;20384;-70
2023/10/06 01:09:57;;;;;;;0.87;0.63;;;;;;;12.47;100.00;101849.66;6100951;23;20402;-68
2023/10/06 01:12:31;;;;;;;0.80;0.50;;;;;;;12.43;100.00;101840.22;6126566;23;20431;-68
2023/10/06 01:15:16;;;;;;;0.80;0.40;;;;;;;12.47;100.00;101855.09;6126497;23;20371;-69
2023/10/06 01:17:45;;;;;;;0.80;0.40;;;;;;;12.50;100.00;101843.84;6100555;23;20442;-68
2023/10/06 01:20:33;;;;;;;1.10;0.60;;;;;;;12.58;100.00;101848.31;6100906;23;20781;-70
2023/10/06 01:23:19;;;;;;;1.57;1.27;;;;;;;12.87;100.00;101853.66;6100500;23;20407;-69
2023/10/06 01:25:54;;;;;;;1.60;1.43;;;;;;;12.92;100.00;101862.06;6126692;23;20458;-69
2023/10/06 01:28:23;;;;;;;0.90;0.70;;;;;;;12.92;100.00;101855.78;6100413;23;20873;-70
2023/10/06 01:30:52;;;;;;;0.80;0.50;;;;;;;13.02;100.00;101854.41;6126751;23;20383;-71
2023/10/06 01:33:21;;;;;;;0.80;0.47;;;;;;;13.10;100.00;101864.31;6126513;23;20387;-70
2023/10/06 01:35:50;;;;;;;1.27;0.90;;;;;;;13.12;100.00;101864.97;6100692;23;20373;-69
2023/10/06 01:38:22;;;;;;;0.80;0.50;;;;;;;13.23;100.00;101867.16;6126568;23;20534;-68
2023/10/06 01:40:53;;;;;;;0.80;0.50;;;;;;;13.24;100.00;101874.28;6126652;23;20383;-69
2023/10/06 01:43:23;;;;;;;0.80;0.40;;;;;;;13.17;100.00;101875.28;6126232;23;20350;-69
2023/10/06 01:45:52;;;;;;;0.90;0.50;;;;;;;13.23;100.00;101875.31;6126625;23;20371;-68
2023/10/06 01:48:24;;;;;;;0.80;0.50;;;;;;;13.29;100.00;101863.66;6126382;23;20485;-67
2023/10/06 01:50:54;;;;;;;0.80;0.53;;;;;;;13.39;100.00;101871.50;6126874;23;20418;-68
2023/10/06 01:53:32;;;;;;;0.80;0.50;;;;;;;13.48;100.00;101871.16;6126524;23;20375;-67
2023/10/06 01:56:06;;;;;;;0.80;0.50;;;;;;;13.40;100.00;101859.56;6126808;23;20387;-69
2023/10/06 01:58:37;;;;;;;0.90;0.80;;;;;;;13.43;100.00;101870.91;6100155;23;20437;-71
2023/10/06 02:01:09;;;;;;;0.83;0.70;;;;;;;13.44;100.00;101861.69;6099844;23;20517;-70
2023/10/06 02:03:39;;;;;;;0.80;0.40;;;;;;;13.51;100.00;101872.59;6126344;23;20826;-69
2023/10/06 02:06:16;;;;;;;0.80;0.50;;;;;;;13.53;100.00;101864.25;6100118;23;20393;-69
2023/10/06 02:08:52;;;;;;;0.80;0.50;;;;;;;13.57;100.00;101865.53;6099847;23;20381;-70
2023/10/06 02:11:27;;;;;;;1.67;1.17;;;;;;;13.60;100.00;101873.31;6126466;23;20898;-68
2023/10/06 02:13:56;;;;;;;0.80;0.57;;;;;;;13.48;100.00;101870.28;6102166;23;20437;-69
2023/10/06 02:16:27;;;;;;;2.03;0.80;;;;;;;13.62;100.00;101874.78;6126882;23;20510;-67
2023/10/06 02:18:56;;;;;;;1.03;0.93;;;;;;;13.54;100.00;101864.06;6099953;23;20511;-70
2023/10/06 02:21:25;;;;;;;0.80;0.60;;;;;;;13.56;100.00;101863.84;6125663;23;20413;-67
2023/10/06 02:24:00;;;;;;;3.00;0.60;;;;;;;13.59;100.00;101860.75;6100106;23;20417;-69
2023/10/06 02:26:29;;;;;;;0.80;0.40;;;;;;;13.57;100.00;101862.81;6127617;23;20379;-69
2023/10/06 02:28:59;;;;;;;1.10;1.00;;;;;;;13.66;100.00;101859.75;6130103;23;20836;-69
2023/10/06 02:31:28;;;;;;;1.43;0.90;;;;;;;13.72;100.00;101858.13;6101120;23;20742;-68
2023/10/06 02:33:57;;;;;;;0.80;0.50;;;;;;;13.71;100.00;101861.88;6126288;23;20391;-68
2023/10/06 02:36:25;;;;;;;0.80;0.47;;;;;;;13.62;100.00;101863.06;6126967;23;20362;-68
2023/10/06 02:38:55;;;;;;;0.80;0.40;;;;;;;13.68;100.00;101876.72;6126142;23;20910;-71
2023/10/06 02:41:25;;;;;;;0.80;0.50;;;;;;;13.63;100.00;101879.19;6126383;23;20381;-69
2023/10/06 02:43:57;;;;;;;1.73;0.60;;;;;;;13.63;100.00;101881.06;6126508;23;20391;-70
2023/10/06 02:46:26;;;;;;;1.10;0.50;;;;;;;13.64;100.00;101882.75;6126205;23;20886;-66
2023/10/06 02:48:55;;;;;;;1.17;1.07;;;;;;;13.63;100.00;101878.34;6126804;23;20342;-70
2023/10/06 02:51:47;;;;;;;0.80;0.40;;;;;;;13.61;100.00;101883.13;6133356;23;20423;-67
2023/10/06 02:54:22;;;;;;;0.80;0.47;;;;;;;13.65;100.00;101885.25;6104983;23;20380;-69
2023/10/06 02:56:55;;;;;;;0.80;0.40;;;;;;;13.54;100.00;101876.84;6102147;23;20402;-69
2023/10/06 02:59:25;;;;;;;1.30;1.20;;;;;;;13.56;100.00;101869.28;6126448;23;20502;-65
2023/10/06 03:01:56;;;;;;;0.80;0.50;;;;;;;13.58;100.00;101861.78;6100296;23;20430;-70
2023/10/06 03:04:27;;;;;;;1.27;1.17;;;;;;;13.53;100.00;101864.25;6126268;23;20727;-68
2023/10/06 03:06:59;;;;;;;2.50;2.40;;;;;;;13.58;100.00;101859.06;6100337;23;20437;-68
2023/10/06 03:09:36;;;;;;;0.80;0.60;;;;;;;13.58;100.00;101857.19;6100214;23;20407;-68
2023/10/06 03:12:14;;;;;;;0.80;0.57;;;;;;;13.70;100.00;101860.22;6130440;23;20414;-69
2023/10/06 03:14:43;;;;;;;0.80;0.60;;;;;;;13.74;100.00;101862.34;6104630;23;20410;-70
2023/10/06 03:17:13;;;;;;;0.80;0.50;;;;;;;13.74;100.00;101864.22;6100876;23;20381;-68
2023/10/06 03:19:44;;;;;;;0.80;0.50;;;;;;;13.71;100.00;101857.28;6126161;23;20410;-69
2023/10/06 03:22:13;;;;;;;1.33;1.23;;;;;;;13.71;100.00;101857.28;6099932;23;20401;-68
2023/10/06 03:24:57;;;;;;;1.33;1.23;;;;;;;13.69;100.00;101853.09;6125689;23;20377;-67
2023/10/06 03:27:28;;;;;;;0.90;0.80;;;;;;;13.78;100.00;101841.00;6099421;23;20465;-67
2023/10/06 03:30:10;;;;;;;1.37;0.93;;;;;;;13.67;100.00;101844.28;6125382;23;20375;-68
2023/10/06 03:32:39;;;;;;;0.80;0.40;;;;;;;13.73;100.00;101829.88;6124846;23;20381;-69
2023/10/06 03:35:21;;;;;;;0.80;0.50;;;;;;;13.70;100.00;101828.38;6099195;23;20381;-68
2023/10/06 03:38:07;;;;;;;1.00;0.90;;;;;;;13.87;100.00;101839.81;6099019;23;20402;-68
2023/10/06 03:40:46;;;;;;;1.60;0.63;;;;;;;13.89;100.00;101846.72;6098873;23;20434;-69
2023/10/06 03:43:15;;;;;;;2.07;1.00;;;;;;;13.91;100.00;101847.34;6125224;23;20387;-67
2023/10/06 03:45:47;;;;;;;0.80;0.40;;;;;;;13.85;100.00;101844.59;6099060;23;20381;-70
2023/10/06 03:48:19;;;;;;;1.30;0.87;;;;;;;13.91;100.00;101849.22;6125029;23;20383;-67
2023/10/06 03:50:48;;;;;;;3.57;3.37;;;;;;;13.94;100.00;101851.56;6099009;23;20369;-70
2023/10/06 03:53:17;;;;;;;0.80;0.40;;;;;;;13.93;100.00;101841.72;6099392;23;20388;-68
2023/10/06 03:55:47;;;;;;;0.80;0.50;;;;;;;14.03;100.00;101844.06;6098779;23;20411;-68
2023/10/06 03:58:18;;;;;;;0.90;0.70;;;;;;;14.04;100.00;101846.56;6124798;23;20430;-70
2023/10/06 04:00:51;;;;;;;0.80;0.40;;;;;;;13.97;100.00;101845.72;6125495;23;20389;-70
2023/10/06 04:03:21;;;;;;;0.80;0.50;;;;;;;13.83;100.00;101843.97;6125311;23;20383;-67
2023/10/06 04:05:51;;;;;;;1.63;0.97;;;;;;;13.93;100.00;101847.16;6124965;23;20402;-68
2023/10/06 04:08:22;;;;;;;1.43;1.33;;;;;;;13.91;100.00;101851.94;6124619;23;20345;-68
2023/10/06 04:10:54;;;;;;;1.87;0.93;;;;;;;13.99;100.00;101854.50;6124721;23;20345;-69
2023/10/06 04:13:24;;;;;;;0.90;0.80;;;;;;;13.86;100.00;101840.84;6124665;23;20375;-69
2023/10/06 04:15:53;;;;;;;0.80;0.60;;;;;;;13.72;100.00;101839.06;6125901;23;20687;-69
2023/10/06 04:18:24;;;;;;;1.00;0.90;;;;;;;13.67;100.00;101839.69;6125266;23;20715;-69
2023/10/06 04:20:56;;;;;;;1.20;0.77;;;;;;;13.48;100.00;101830.34;6125110;23;20393;-70
2023/10/06 04:23:25;;;;;;;0.80;0.60;;;;;;;13.41;100.00;101845.75;6124923;23;20410;-68
2023/10/06 04:25:56;;;;;;;0.80;0.40;;;;;;;13.33;100.00;101843.19;6124989;23;20390;-69
2023/10/06 04:28:27;;;;;;;0.90;0.70;;;;;;;13.24;100.00;101841.66;6124834;23;20482;-67
2023/10/06 04:31:00;;;;;;;0.80;0.50;;;;;;;13.03;100.00;101833.50;6124465;23;20449;-69
2023/10/06 04:33:30;;;;;;;1.23;0.83;;;;;;;12.98;100.00;101827.81;6124759;23;20356;-69
2023/10/06 04:36:07;;;;;;;0.80;0.40;;;;;;;12.86;100.00;101830.22;6125312;23;20397;-68
2023/10/06 04:38:42;;;;;;;2.20;1.80;;;;;;;12.74;100.00;101833.63;6125259;23;20666;-69
2023/10/06 04:41:14;;;;;;;0.80;0.60;;;;;;;12.80;100.00;101836.44;6126765;23;20416;-70
2023/10/06 04:43:44;;;;;;;0.80;0.50;;;;;;;12.66;100.00;101833.78;6128669;23;20381;-69
2023/10/06 04:46:14;;;;;;;1.43;1.30;;;;;;;12.72;100.00;101830.28;6125767;23;20354;-69
2023/10/06 04:48:43;;;;;;;1.13;1.03;;;;;;;12.79;100.00;101828.47;6124796;23;20382;-68
2023/10/06 04:51:13;;;;;;;0.80;0.40;;;;;;;12.71;100.00;101829.44;6125259;23;20381;-69
2023/10/06 04:53:45;;;;;;;1.67;1.57;;;;;;;12.65;100.00;101822.06;6124864;23;20349;-68
2023/10/06 04:56:16;;;;;;;0.80;0.50;;;;;;;12.82;100.00;101828.09;6124799;23;20859;-69
2023/10/06 04:58:45;;;;;;;0.77;0.40;;;;;;;12.78;100.00;101834.97;6124802;23;20349;-69
2023/10/06 05:01:16;;;;;;;2.20;1.83;;;;;;;12.71;100.00;101836.75;6125374;23;20948;-68
2023/10/06 05:03:45;;;;;;;0.80;0.50;;;;;;;12.76;100.00;101829.72;6124963;23;20375;-70
2023/10/06 05:06:17;;;;;;;1.77;1.13;;;;;;;12.94;100.00;101821.09;6125969;23;20463;-70
2023/10/06 05:08:48;;;;;;;0.80;0.40;;;;;;;13.08;100.00;101817.44;6127526;23;20377;-68
2023/10/06 05:11:23;;;;;;;1.53;1.43;;;;;;;13.12;100.00;101824.19;6127001;23;20460;-68
2023/10/06 05:13:52;;;;;;;1.53;1.43;;;;;;;13.00;100.00;101826.59;6126675;23;20842;-66
2023/10/06 05:16:27;;;;;;;1.87;0.80;;;;;;;13.11;100.00;101827.97;6127258;23;20377;-69
2023/10/06 05:18:56;;;;;;;1.20;1.10;;;;;;;13.14;100.00;101829.44;6128795;23;20441;-69
2023/10/06 05:21:25;;;;;;;1.20;0.90;;;;;;;13.30;100.00;101837.31;6129504;23;20431;-68
2023/10/06 05:23:55;;;;;;;0.80;0.50;;;;;;;13.29;100.00;101831.03;6131711;23;20380;-67
2023/10/06 05:26:27;;;;;;;2.60;2.30;;;;;;;13.27;100.00;101826.84;6107450;23;20409;-67
2023/10/06 05:28:56;;;;;;;0.80;0.60;;;;;;;13.20;100.00;101826.78;6132529;23;20350;-69
2023/10/06 05:31:25;;;;;;;0.80;0.50;;;;;;;13.25;100.00;101829.75;6132773;23;20766;-69
2023/10/06 05:33:54;;;;;;;0.80;0.40;;;;;;;13.15;100.00;101829.25;6134063;23;20722;-70
2023/10/06 05:36:23;;;;;;;0.80;0.50;;;;;;;13.12;100.00;101826.09;6111601;23;20409;-69
2023/10/06 05:38:52;;;;;;;2.00;1.03;;;;;;;13.12;100.00;101824.19;6135612;23;20376;-69
2023/10/06 05:41:21;;;;;;;1.20;1.10;;;;;;;13.10;100.00;101837.13;6143469;23;20409;-69
2023/10/06 05:43:52;;;;;;;0.80;0.40;;;;;;;12.98;100.00;101838.69;6140060;23;20375;-67
2023/10/06 05:46:21;;;;;;;0.80;0.50;;;;;;;12.95;100.00;101833.66;6133309;23;20358;-68
2023/10/06 05:48:51;;;;;;;0.80;0.40;;;;;;;13.00;100.00;101825.75;6131376;23;20423;-69
2023/10/06 05:51:21;;;;;;;0.80;0.50;;;;;;;13.08;100.00;101822.88;6131508;23;20824;-69
2023/10/06 05:53:52;;;;;;;0.80;0.70;;;;;;;13.07;100.00;101826.63;6129838;23;20416;-67
2023/10/06 05:56:23;;;;;;;0.80;0.47;;;;;;;13.13;100.00;101831.31;6130504;23;20357;-70
2023/10/06 05:58:53;;;;;;;0.80;0.70;;;;;;;13.00;100.00;101831.19;6129296;23;20356;-69
2023/10/06 06:01:28;;;;;;;0.80;0.70;;;;;;;13.06;100.00;101833.13;6127630;23;20755;-70
2023/10/06 06:03:57;;;;;;;0.80;0.50;;;;;;;13.14;100.00;101827.56;6126931;23;20681;-70
2023/10/06 06:06:27;;;;;;;0.80;0.70;;;;;;;13.12;100.00;101840.50;6126589;23;20927;-69
2023/10/06 06:08:55;;;;;;;0.80;0.70;;;;;;;13.21;100.00;101839.34;6127024;23;20375;-67
2023/10/06 06:11:27;;;;;;;0.80;0.40;;;;;;;13.27;100.00;101841.25;6126803;23;20410;-67
2023/10/06 06:13:58;;;;;;;0.90;0.70;;;;;;;13.33;100.00;101837.78;6126367;23;20856;-69
2023/10/06 06:16:46;;;;;;;2.30;2.20;;;;;;;13.57;100.00;101847.34;6125829;23;20433;-69
2023/10/06 06:19:15;;;;;;;0.80;0.50;;;;;;;13.62;100.00;101841.31;6125490;23;20446;-69
2023/10/06 06:21:44;;;;;;;3.63;1.53;;;;;;;13.78;100.00;101835.56;6125977;23;20907;-68
2023/10/06 06:24:20;;;;;;;1.27;0.80;;;;;;;13.98;100.00;101836.53;6126287;23;20375;-68
2023/10/06 06:26:49;;;;;;;3.00;1.20;;;;;;;14.26;100.00;101823.66;6125534;23;20380;-68
2023/10/06 06:29:19;;;;;;;1.37;0.93;;;;;;;14.45;100.00;101823.94;6126280;23;20945;-68
2023/10/06 06:31:52;;;;;;;0.80;0.40;;;;;;;14.67;100.00;101822.72;6132158;23;20381;-70
2023/10/06 06:34:21;;;;;;;0.90;0.63;;;;;;;14.95;100.00;101820.69;6129818;23;20349;-71
2023/10/06 06:36:51;;;;;;;1.40;1.30;;;;;;;14.93;100.00;101820.06;6126309;23;20350;-69
2023/10/06 06:39:21;;;;;;;0.80;0.50;;;;;;;15.10;100.00;101825.97;6125786;23;20350;-70
2023/10/06 06:41:53;;;;;;;0.80;0.50;;;;;;;15.03;100.00;101831.38;6125170;23;20759;-69
2023/10/06 06:44:25;;;;;;;1.10;0.70;;;;;;;14.96;100.00;101838.72;6125721;23;20347;-70
2023/10/06 06:46:54;;;;;;;2.93;1.37;;;;;;;15.10;100.00;101848.56;6125267;23;20826;-67
2023/10/06 06:49:26;;;;;;;0.80;0.60;;;;;;;15.06;100.00;101838.31;6125296;23;20416;-69
2023/10/06 06:51:58;;;;;;;2.30;1.37;;;;;;;15.01;100.00;101819.84;6128193;23;20407;-69
2023/10/06 06:54:27;;;;;;;0.80;0.60;;;;;;;15.03;100.00;101806.84;6131644;23;20410;-69
2023/10/06 06:56:56;;;;;;;2.33;1.27;;;;;;;15.10;100.00;101810.41;6131480;23;20371;-69
2023/10/06 06:59:26;;;;;;;0.80;0.50;;;;;;;15.19;100.00;101822.81;6131091;23;20875;-68
2023/10/06 07:01:54;;;;;;;1.10;0.60;;;;;;;15.22;100.00;101835.16;6130091;23;20409;-71
2023/10/06 07:04:26;;;;;;;1.00;0.73;;;;;;;15.40;100.00;101834.53;6129116;23;20394;-69
2023/10/06 07:06:54;;;;;;;0.93;0.70;;;;;;;15.49;100.00;101836.00;6130501;23;20424;-69
2023/10/06 07:09:23;;;;;;;0.80;0.40;;;;;;;15.65;100.00;101838.31;6130304;23;20931;-70
2023/10/06 07:11:52;;;;;;;0.93;0.83;;;;;;;15.64;100.00;101828.44;6129986;23;20403;-67
2023/10/06 07:14:20;;;;;;;3.53;1.17;;;;;;;15.59;100.00;101829.06;6128042;23;20387;-70
2023/10/06 07:16:51;;;;;;;2.17;0.87;;;;;;;15.75;100.00;101824.22;6128152;23;20374;-71
2023/10/06 07:19:20;;;;;;;0.80;0.50;;;;;;;15.77;100.00;101827.59;6129238;23;20389;-71
2023/10/06 07:21:50;;;;;;;0.90;0.60;;;;;;;15.89;100.00;101832.16;6128032;23;20757;-69
2023/10/06 07:24:19;;;;;;;0.80;0.50;;;;;;;15.92;100.00;101826.28;6128134;23;20377;-69
2023/10/06 07:26:47;;;;;;;1.00;0.87;;;;;;;16.03;100.00;101833.78;6128418;23;20349;-69
2023/10/06 07:29:16;;;;;;;0.80;0.50;;;;;;;16.02;100.00;101832.09;6130564;23;20374;-71
2023/10/06 07:31:48;;;;;;;0.80;0.40;;;;;;;16.19;100.00;101818.81;6130438;23;20411;-70
2023/10/06 07:34:18;;;;;;;0.80;0.50;;;;;;;16.21;100.00;101810.41;6128686;23;20350;-70
2023/10/06 07:36:47;;;;;;;1.00;0.80;;;;;;;16.29;100.00;101819.19;6126906;23;20350;-70
2023/10/06 07:39:20;;;;;;;0.93;0.77;;;;;;;16.21;100.00;101815.88;6126641;23;20365;-71
2023/10/06 07:41:50;;;;;;;1.20;0.73;;;;;;;16.18;100.00;101819.03;6127244;23;20426;-69
2023/10/06 07:44:20;;;;;;;1.30;0.60;;;;;;;16.25;100.00;101819.84;6128139;23;20391;-70
2023/10/06 07:46:52;;;;;;;0.80;0.60;;;;;;;16.32;100.00;101815.19;6128410;23;20437;-68
2023/10/06 07:49:22;;;;;;;1.20;1.10;;;;;;;16.55;100.00;101820.13;6099842;23;20406;-70
2023/10/06 07:51:51;;;;;;;0.80;0.50;;;;;;;16.45;98.47;101821.44;6125073;23;20402;-69
2023/10/06 07:54:21;;;;;;;0.80;0.40;;;;;;;16.65;97.89;101825.97;6124918;23;20846;-68
2023/10/06 07:56:52;;;;;;;1.00;0.80;;;;;;;16.75;97.78;101827.16;6098377;23;20392;-69
2023/10/06 07:59:20;;;;;;;0.80;0.50;;;;;;;16.64;97.37;101825.13;6098713;23;20438;-68
2023/10/06 08:01:49;;;;;;;0.80;0.50;;;;;;;16.66;98.18;101812.06;6124591;23;20405;-69
2023/10/06 08:04:18;;;;;;;1.13;1.00;;;;;;;16.69;95.38;101810.81;6124464;23;20772;-68
2023/10/06 08:06:48;;;;;;;0.90;0.60;;;;;;;16.89;93.07;101812.31;6124156;23;20402;-69
2023/10/06 08:09:17;;;;;;;0.93;0.73;;;;;;;16.91;93.14;101812.94;6124522;23;20430;-69
2023/10/06 08:11:45;;;;;;;0.93;0.83;;;;;;;16.95;93.32;101816.91;6124473;23;20798;-68
2023/10/06 08:14:14;;;;;;;0.80;0.40;;;;;;;17.07;92.46;101808.84;6124867;23;20375;-69
2023/10/06 08:16:45;;;;;;;0.80;0.60;;;;;;;17.13;92.03;101801.66;6124324;23;20864;-69
2023/10/06 08:19:14;;;;;;;0.80;0.40;;;;;;;17.04;92.41;101803.00;6124415;23;20414;-70
2023/10/06 08:21:43;;;;;;;1.90;1.80;;;;;;;17.05;91.71;101804.63;6125347;23;20425;-70
2023/10/06 08:24:13;;;;;;;1.20;1.00;;;;;;;16.91;91.54;101799.28;6124516;23;20485;-68
2023/10/06 08:26:42;;;;;;;0.80;0.60;;;;;;;16.89;91.80;101798.66;6124859;23;20402;-69
2023/10/06 08:29:14;;;;;;;0.80;0.50;;;;;;;16.99;89.95;101773.59;6125021;23;20365;-70
2023/10/06 08:31:43;;;;;;;1.00;0.50;;;;;;;17.45;89.19;101777.75;6124597;23;20416;-69
2023/10/06 08:34:11;;;;;;;0.90;0.50;;;;;;;17.60;86.71;101773.63;6124564;23;20426;-69
2023/10/06 08:36:41;;;;;;;1.40;1.30;;;;;;;17.53;87.59;101758.31;6125046;23;20795;-68
2023/10/06 08:39:13;;;;;;;1.20;0.70;;;;;;;17.50;86.45;101759.59;6124704;23;20354;-68
2023/10/06 08:41:46;;;;;;;1.37;1.27;;;;;;;17.45;87.84;101751.25;6124597;23;20409;-69
2023/10/06 08:44:19;;;;;;;0.90;0.50;;;;;;;17.49;86.61;101759.81;6125945;23;20823;-69
2023/10/06 08:46:49;;;;;;;0.90;0.60;;;;;;;17.88;85.72;101755.81;6126354;23;20365;-69
2023/10/06 08:49:19;;;;;;;3.03;1.27;;;;;;;18.06;84.17;101747.56;6126504;23;20426;-69
2023/10/06 08:51:52;;;;;;;1.30;0.80;;;;;;;18.07;81.47;101754.72;6126411;23;20378;-68
2023/10/06 08:54:23;;;;;;;7.13;1.63;;;;;;;18.01;83.25;101761.16;6134840;23;20790;-70
2023/10/06 08:56:54;;;;;;;0.90;0.67;;;;;;;18.02;82.54;101757.31;6132317;23;20383;-69
2023/10/06 08:59:23;;;;;;;1.83;1.33;;;;;;;18.10;82.38;101757.03;6130217;23;20350;-69
2023/10/06 09:01:51;;;;;;;0.90;0.50;;;;;;;18.18;82.01;101764.91;6126235;23;20400;-70
2023/10/06 09:04:21;;;;;;;0.87;0.40;;;;;;;18.23;82.57;101759.59;6126280;23;20366;-70
2023/10/06 09:07:12;;;;;;;0.80;0.50;;;;;;;18.27;81.12;101755.31;6126432;23;20373;-68
2023/10/06 09:09:43;;;;;;;1.20;1.00;;;;;;;18.25;81.14;101771.13;6129651;23;20402;-70
2023/10/06 09:12:24;;;;;;;1.97;1.07;;;;;;;18.32;80.92;101758.19;6130057;23;20904;-69
2023/10/06 09:14:55;;;;;;;1.10;0.90;;;;;;;18.22;82.36;101760.66;6126352;23;20399;-70
2023/10/06 09:17:32;;;;;;;0.90;0.50;;;;;;;18.18;81.13;101759.44;6126165;23;20375;-68
2023/10/06 09:20:00;;;;;;;0.90;0.50;;;;;;;18.21;81.23;101751.59;6126164;23;20463;-68
2023/10/06 09:22:46;;;;;;;0.90;0.70;;;;;;;18.33;80.28;101753.53;6126269;23;20425;-69
2023/10/06 09:25:19;;;;;;;1.17;1.07;;;;;;;18.36;81.11;101759.38;6126363;23;20473;-69
2023/10/06 09:27:48;;;;;;;0.90;0.50;;;;;;;18.18;80.36;101752.06;6126055;23;20377;-68
2023/10/06 09:30:20;;;;;;;0.90;0.40;;;;;;;18.27;81.05;101744.34;6126828;23;20369;-69
2023/10/06 09:33:01;;;;;;;1.00;0.50;;;;;;;18.30;79.73;101743.88;6126228;23;20403;-68
2023/10/06 09:35:30;;;;;;;0.90;0.50;;;;;;;18.30;80.29;101743.88;6126031;23;20350;-69
2023/10/06 09:38:15;;;;;;;1.20;0.97;;;;;;;18.11;80.00;101744.97;6126158;23;20350;-69
2023/10/06 09:40:47;;;;;;;2.03;0.90;;;;;;;17.99;79.02;101736.72;6126375;23;20365;-69
2023/10/06 09:43:16;;;;;;;1.83;0.80;;;;;;;18.27;79.30;101722.44;6126289;23;20400;-68
2023/10/06 09:45:52;;;;;;;0.90;0.47;;;;;;;18.50;77.88;101722.50;6126491;23;20695;-69
2023/10/06 09:48:32;;;;;;;0.90;0.40;;;;;;;18.66;76.51;101715.53;6126563;23;20400;-68
2023/10/06 09:51:06;;;;;;;0.90;0.40;;;;;;;18.29;75.76;101714.81;6126365;23;20473;-67
2023/10/06 09:53:38;;;;;;;1.43;0.80;;;;;;;18.59;75.99;101710.16;6125823;23;20346;-69
2023/10/06 09:56:11;;;;;;;1.00;0.60;;;;;;;18.87;74.42;101711.41;6126048;23;20405;-68
2023/10/06 09:58:41;;;;;;;0.90;0.40;;;;;;;18.98;73.47;101707.81;6125791;23;20376;-69
2023/10/06 10:01:14;;;;;;;0.90;0.40;;;;;;;19.31;73.35;101713.53;6125675;23;20381;-70
2023/10/06 10:03:44;;;;;;;0.90;0.50;;;;;;;19.45;72.47;101709.50;6127439;23;20389;-71
2023/10/06 10:06:14;;;;;;;1.10;0.77;;;;;;;18.79;71.35;101698.84;6125737;23;20870;-69
2023/10/06 10:08:43;;;;;;;2.20;1.10;;;;;;;19.14;71.28;101707.09;6125543;23;20345;-67
2023/10/06 10:11:20;;;;;;;0.90;0.40;;;;;;;19.21;71.61;101696.84;6125951;23;20920;-69
2023/10/06 10:14:15;;;;;;;1.33;0.77;;;;;;;19.29;69.79;101696.47;6126344;23;20371;-67
2023/10/06 10:16:58;;;;;;;2.57;0.70;;;;;;;19.19;71.29;101692.66;6126053;23;20417;-70
2023/10/06 10:19:30;;;;;;;0.80;0.40;;;;;;;19.25;72.72;101698.03;6125902;23;20357;-69
2023/10/06 10:21:59;;;;;;;0.90;0.47;;;;;;;19.17;70.17;101690.16;6125879;23;20382;-70
2023/10/06 10:24:28;;;;;;;0.90;0.40;;;;;;;19.07;69.94;101679.78;6125444;23;20450;-70
2023/10/06 10:27:22;;;;;;;1.10;0.90;;;;;;;19.10;70.00;101673.81;6126077;23;20691;-69
2023/10/06 10:29:51;;;;;;;0.90;0.40;;;;;;;18.90;71.11;101678.00;6125510;23;20389;-71
2023/10/06 10:32:23;;;;;;;2.30;2.10;;;;;;;18.87;69.12;101673.84;6125499;23;20740;-69
2023/10/06 10:35:12;;;;;;;1.00;0.67;;;;;;;18.84;69.91;101682.53;6125320;23;20390;-69
2023/10/06 10:37:55;;;;;;;0.90;0.60;;;;;;;18.74;69.48;101678.69;6125735;23;20441;-69
2023/10/06 10:40:26;;;;;;;0.90;0.50;;;;;;;18.85;70.54;101661.41;6125414;23;20528;-68
2023/10/06 10:43:04;;;;;;;0.90;0.63;;;;;;;18.81;70.73;101652.84;6124771;23;20405;-70
2023/10/06 10:45:43;;;;;;;0.83;0.40;;;;;;;18.89;68.92;101652.47;6124956;23;20375;-69
2023/10/06 10:48:14;;;;;;;0.90;0.40;;;;;;;18.64;69.28;101647.22;6125647;23;20379;-69
2023/10/06 10:51:01;;;;;;;0.90;0.53;;;;;;;18.92;70.58;101637.47;6125140;23;20791;-70
2023/10/06 10:53:31;;;;;;;0.90;0.40;;;;;;;19.09;70.41;101644.72;6125002;23;20771;-70
2023/10/06 10:56:02;;;;;;;0.90;0.50;;;;;;;19.18;68.29;101647.91;6126572;23;20841;-68
2023/10/06 10:58:59;;;;;;;0.90;0.40;;;;;;;19.15;68.09;101662.13;6126743;23;20416;-68
2023/10/06 11:01:31;;;;;;;0.90;0.40;;;;;;;19.04;67.98;101652.00;6125947;23;20416;-69
2023/10/06 11:04:34;;;;;;;0.90;0.50;;;;;;;19.49;67.35;101655.78;6125413;23;20415;-69
2023/10/06 11:07:15;;;;;;;0.90;0.50;;;;;;;19.44;66.66;101652.94;6124999;23;20369;-68
2023/10/06 11:09:48;;;;;;;0.90;0.40;;;;;;;19.40;66.28;101657.19;6099539;23;20500;-69
2023/10/06 11:12:23;;;;;;;1.10;0.60;;;;;;;19.30;64.28;101650.66;6131911;23;20403;-68
2023/10/06 11:15:02;;;;;;;1.13;0.60;;;;;;;19.37;64.29;101645.84;6133594;23;20377;-69
2023/10/06 11:17:33;;;;;;;1.00;0.50;;;;;;;19.58;64.17;101658.13;6132915;23;20449;-70
2023/10/06 11:20:12;;;;;;;0.90;0.50;;;;;;;19.39;64.06;101655.53;6129505;23;20561;-71
2023/10/06 11:22:52;;;;;;;0.90;0.50;;;;;;;19.49;63.71;101632.97;6126926;23;20495;-70
2023/10/06 11:25:26;;;;;;;0.90;0.40;;;;;;;19.60;63.30;101623.03;6125652;23;20405;-70
2023/10/06 11:28:03;;;;;;;0.90;0.40;;;;;;;19.56;63.77;101627.34;6125411;23;20447;-70
2023/10/06 11:30:34;;;;;;;0.90;0.40;;;;;;;19.49;64.18;101632.97;6125453;23;20375;-69
2023/10/06 11:33:05;;;;;;;0.90;0.40;;;;;;;19.53;64.12;101624.00;6124682;23;20350;-69
2023/10/06 11:35:35;;;;;;;0.90;0.50;;;;;;;19.79;63.82;101619.03;6125219;23;20431;-70
2023/10/06 11:38:06;;;;;;;0.90;0.53;;;;;;;19.91;62.65;101615.13;6125094;23;20403;-69
2023/10/06 11:40:35;;;;;;;0.90;0.40;;;;;;;19.92;62.82;101607.72;6125334;23;20438;-69
2023/10/06 11:43:12;;;;;;;0.90;0.40;;;;;;;19.68;62.77;101598.75;6124879;23;20351;-70